sensor_id;sensor_type;location;lat;lon;timestamp;P1;durP1;ratioP1;P2;durP2;ratioP2
46110;SDS011;31849;55.992;37.252;2024-03-23T00:56:51;41.92;;;23.33;;
46110;SDS011;31849;55.992;37.252;2024-03-23T01:01:54;39.57;;;23.67;;
46110;SDS011;31849;55.992;37.252;2024-03-23T01:06:56;41.40;;;23.30;;
46110;SDS011;31849;55.992;37.252;2024-03-23T01:12:00;42.20;;;23.52;;
46110;SDS011;31849;55.992;37.252;2024-03-23T01:17:03;44.93;;;23.80;;
46110;SDS011;31849;55.992;37.252;2024-03-23T01:22:06;46.90;;;25.45;;
46110;SDS011;31849;55.992;37.252;2024-03-23T01:27:12;46.47;;;24.35;;
46110;SDS011;31849;55.992;37.252;2024-03-23T01:32:15;49.20;;;24.90;;
46110;SDS011;31849;55.992;37.252;2024-03-23T01:37:17;50.28;;;25.23;;
46110;SDS011;31849;55.992;37.252;2024-03-23T01:42:21;49.45;;;26.48;;
46110;SDS011;31849;55.992;37.252;2024-03-23T01:47:24;46.55;;;23.83;;
46110;SDS011;31849;55.992;37.252;2024-03-23T01:52:27;48.90;;;25.58;;
46110;SDS011;31849;55.992;37.252;2024-03-23T01:57:31;48.17;;;25.98;;
46110;SDS011;31849;55.992;37.252;2024-03-23T02:02:34;51.27;;;26.60;;
46110;SDS011;31849;55.992;37.252;2024-03-23T02:07:37;51.20;;;26.02;;
46110;SDS011;31849;55.992;37.252;2024-03-23T02:12:41;50.97;;;26.85;;
46110;SDS011;31849;55.992;37.252;2024-03-23T02:17:43;45.63;;;25.20;;
46110;SDS011;31849;55.992;37.252;2024-03-23T02:22:46;47.30;;;25.08;;
46110;SDS011;31849;55.992;37.252;2024-03-23T02:27:53;54.22;;;27.73;;
46110;SDS011;31849;55.992;37.252;2024-03-23T02:32:56;52.92;;;26.58;;
46110;SDS011;31849;55.992;37.252;2024-03-23T02:38:00;53.58;;;27.20;;
46110;SDS011;31849;55.992;37.252;2024-03-23T02:43:03;57.95;;;30.27;;
46110;SDS011;31849;55.992;37.252;2024-03-23T02:48:06;60.20;;;27.60;;
46110;SDS011;31849;55.992;37.252;2024-03-23T02:53:10;56.08;;;27.58;;
46110;SDS011;31849;55.992;37.252;2024-03-23T02:58:13;56.70;;;29.23;;
46110;SDS011;31849;55.992;37.252;2024-03-23T03:03:15;54.80;;;28.40;;
46110;SDS011;31849;55.992;37.252;2024-03-23T03:08:19;59.97;;;28.70;;
46110;SDS011;31849;55.992;37.252;2024-03-23T03:13:22;59.55;;;31.23;;
46110;SDS011;31849;55.992;37.252;2024-03-23T03:18:24;53.95;;;27.23;;
46110;SDS011;31849;55.992;37.252;2024-03-23T03:23:28;60.03;;;29.75;;
46110;SDS011;31849;55.992;37.252;2024-03-23T03:28:31;53.10;;;28.37;;
46110;SDS011;31849;55.992;37.252;2024-03-23T03:33:34;56.03;;;28.00;;
46110;SDS011;31849;55.992;37.252;2024-03-23T03:38:38;53.45;;;27.30;;
46110;SDS011;31849;55.992;37.252;2024-03-23T03:43:41;53.13;;;26.33;;
46110;SDS011;31849;55.992;37.252;2024-03-23T03:48:43;49.80;;;25.67;;
46110;SDS011;31849;55.992;37.252;2024-03-23T03:53:50;54.97;;;28.35;;
46110;SDS011;31849;55.992;37.252;2024-03-23T03:58:52;48.63;;;26.23;;
46110;SDS011;31849;55.992;37.252;2024-03-23T04:03:55;52.10;;;28.20;;
46110;SDS011;31849;55.992;37.252;2024-03-23T04:08:59;49.58;;;26.75;;
46110;SDS011;31849;55.992;37.252;2024-03-23T04:14:01;51.63;;;27.77;;
46110;SDS011;31849;55.992;37.252;2024-03-23T04:19:04;56.10;;;29.30;;
46110;SDS011;31849;55.992;37.252;2024-03-23T04:24:09;51.97;;;27.45;;
46110;SDS011;31849;55.992;37.252;2024-03-23T04:29:12;51.47;;;27.50;;
46110;SDS011;31849;55.992;37.252;2024-03-23T04:34:14;56.80;;;28.70;;
46110;SDS011;31849;55.992;37.252;2024-03-23T04:39:18;55.13;;;27.85;;
46110;SDS011;31849;55.992;37.252;2024-03-23T04:44:21;49.10;;;25.70;;
46110;SDS011;31849;55.992;37.252;2024-03-23T04:49:23;53.15;;;26.08;;
46110;SDS011;31849;55.992;37.252;2024-03-23T04:54:28;49.33;;;26.08;;
46110;SDS011;31849;55.992;37.252;2024-03-23T04:59:30;45.70;;;24.63;;
46110;SDS011;31849;55.992;37.252;2024-03-23T05:04:33;46.00;;;24.10;;
46110;SDS011;31849;55.992;37.252;2024-03-23T05:09:37;47.35;;;24.92;;
46110;SDS011;31849;55.992;37.252;2024-03-23T05:14:39;49.43;;;24.33;;
46110;SDS011;31849;55.992;37.252;2024-03-23T05:19:42;45.95;;;25.40;;
46110;SDS011;31849;55.992;37.252;2024-03-23T05:24:46;39.58;;;23.00;;
46110;SDS011;31849;55.992;37.252;2024-03-23T05:29:49;37.20;;;22.23;;
46110;SDS011;31849;55.992;37.252;2024-03-23T05:34:51;38.78;;;21.58;;
46110;SDS011;31849;55.992;37.252;2024-03-23T05:45:00;40.88;;;21.25;;
46110;SDS011;31849;55.992;37.252;2024-03-23T05:50:04;35.55;;;21.08;;
46110;SDS011;31849;55.992;37.252;2024-03-23T05:55:09;34.50;;;20.05;;
46110;SDS011;31849;55.992;37.252;2024-03-23T06:00:11;31.67;;;17.30;;
46110;SDS011;31849;55.992;37.252;2024-03-23T06:05:17;31.27;;;18.23;;
46110;SDS011;31849;55.992;37.252;2024-03-23T06:10:21;31.60;;;17.70;;
46110;SDS011;31849;55.992;37.252;2024-03-23T06:15:24;28.60;;;17.23;;
46110;SDS011;31849;55.992;37.252;2024-03-23T06:20:28;29.92;;;17.10;;
46110;SDS011;31849;55.992;37.252;2024-03-23T06:25:32;26.95;;;16.65;;
46110;SDS011;31849;55.992;37.252;2024-03-23T06:30:34;26.90;;;16.67;;
46110;SDS011;31849;55.992;37.252;2024-03-23T06:35:37;25.33;;;15.60;;
46110;SDS011;31849;55.992;37.252;2024-03-23T06:40:41;25.67;;;14.45;;
46110;SDS011;31849;55.992;37.252;2024-03-23T06:45:52;25.05;;;15.25;;
46110;SDS011;31849;55.992;37.252;2024-03-23T06:50:55;24.23;;;15.10;;
46110;SDS011;31849;55.992;37.252;2024-03-23T06:56:00;22.63;;;14.50;;
46110;SDS011;31849;55.992;37.252;2024-03-23T07:01:03;21.47;;;13.27;;
46110;SDS011;31849;55.992;37.252;2024-03-23T07:06:05;20.83;;;12.77;;
46110;SDS011;31849;55.992;37.252;2024-03-23T07:11:09;17.17;;;11.50;;
46110;SDS011;31849;55.992;37.252;2024-03-23T07:16:12;18.43;;;11.63;;
46110;SDS011;31849;55.992;37.252;2024-03-23T07:21:15;16.08;;;9.98;;
46110;SDS011;31849;55.992;37.252;2024-03-23T07:26:19;15.50;;;10.07;;
46110;SDS011;31849;55.992;37.252;2024-03-23T07:31:22;13.88;;;8.50;;
46110;SDS011;31849;55.992;37.252;2024-03-23T07:36:25;17.85;;;10.20;;
46110;SDS011;31849;55.992;37.252;2024-03-23T07:41:29;15.65;;;9.05;;
46110;SDS011;31849;55.992;37.252;2024-03-23T07:46:32;12.30;;;9.00;;
46110;SDS011;31849;55.992;37.252;2024-03-23T07:51:35;15.95;;;9.77;;
46110;SDS011;31849;55.992;37.252;2024-03-23T07:56:41;16.58;;;10.27;;
46110;SDS011;31849;55.992;37.252;2024-03-23T08:01:43;15.88;;;9.30;;
46110;SDS011;31849;55.992;37.252;2024-03-23T08:06:46;16.33;;;10.80;;
46110;SDS011;31849;55.992;37.252;2024-03-23T08:11:50;14.98;;;9.77;;
46110;SDS011;31849;55.992;37.252;2024-03-23T08:16:54;14.13;;;9.83;;
46110;SDS011;31849;55.992;37.252;2024-03-23T08:21:56;13.02;;;8.65;;
46110;SDS011;31849;55.992;37.252;2024-03-23T08:27:00;13.32;;;8.90;;
46110;SDS011;31849;55.992;37.252;2024-03-23T08:32:05;14.38;;;9.75;;
46110;SDS011;31849;55.992;37.252;2024-03-23T08:37:08;13.20;;;9.05;;
46110;SDS011;31849;55.992;37.252;2024-03-23T08:42:12;14.88;;;10.30;;
46110;SDS011;31849;55.992;37.252;2024-03-23T08:47:15;14.73;;;9.50;;
46110;SDS011;31849;55.992;37.252;2024-03-23T08:52:17;14.48;;;9.50;;
46110;SDS011;31849;55.992;37.252;2024-03-23T08:57:21;14.63;;;9.15;;
46110;SDS011;31849;55.992;37.252;2024-03-23T09:02:42;14.95;;;9.52;;
46110;SDS011;31849;55.992;37.252;2024-03-23T09:07:49;16.13;;;10.73;;
46110;SDS011;31849;55.992;37.252;2024-03-23T09:12:53;16.08;;;10.35;;
46110;SDS011;31849;55.992;37.252;2024-03-23T09:17:55;15.20;;;9.50;;
46110;SDS011;31849;55.992;37.252;2024-03-23T09:22:58;14.48;;;10.00;;
46110;SDS011;31849;55.992;37.252;2024-03-23T09:28:02;14.52;;;10.55;;
46110;SDS011;31849;55.992;37.252;2024-03-23T09:33:05;13.02;;;8.90;;
46110;SDS011;31849;55.992;37.252;2024-03-23T09:38:08;15.40;;;10.18;;
46110;SDS011;31849;55.992;37.252;2024-03-23T09:43:12;13.88;;;9.63;;
46110;SDS011;31849;55.992;37.252;2024-03-23T09:48:15;15.70;;;9.70;;
46110;SDS011;31849;55.992;37.252;2024-03-23T09:53:18;15.05;;;9.98;;
46110;SDS011;31849;55.992;37.252;2024-03-23T09:58:24;14.45;;;10.25;;
46110;SDS011;31849;55.992;37.252;2024-03-23T10:03:27;13.93;;;9.70;;
46110;SDS011;31849;55.992;37.252;2024-03-23T10:08:30;15.40;;;10.05;;
46110;SDS011;31849;55.992;37.252;2024-03-23T10:13:35;14.38;;;8.70;;
46110;SDS011;31849;55.992;37.252;2024-03-23T10:18:38;13.43;;;9.30;;
46110;SDS011;31849;55.992;37.252;2024-03-23T10:23:42;14.63;;;9.88;;
46110;SDS011;31849;55.992;37.252;2024-03-23T10:28:54;12.07;;;8.23;;
46110;SDS011;31849;55.992;37.252;2024-03-23T10:34:00;13.00;;;9.13;;
46110;SDS011;31849;55.992;37.252;2024-03-23T10:39:03;12.82;;;9.55;;
46110;SDS011;31849;55.992;37.252;2024-03-23T10:44:10;13.40;;;9.57;;
46110;SDS011;31849;55.992;37.252;2024-03-23T10:49:13;14.40;;;9.90;;
46110;SDS011;31849;55.992;37.252;2024-03-23T10:54:16;11.80;;;8.32;;
46110;SDS011;31849;55.992;37.252;2024-03-23T10:59:21;11.45;;;8.38;;
46110;SDS011;31849;55.992;37.252;2024-03-23T11:09:40;12.52;;;8.52;;
46110;SDS011;31849;55.992;37.252;2024-03-23T11:14:47;11.73;;;8.70;;
46110;SDS011;31849;55.992;37.252;2024-03-23T11:19:53;12.00;;;8.70;;
46110;SDS011;31849;55.992;37.252;2024-03-23T11:24:57;12.70;;;8.45;;
46110;SDS011;31849;55.992;37.252;2024-03-23T11:30:11;13.65;;;8.60;;
46110;SDS011;31849;55.992;37.252;2024-03-23T11:35:29;13.55;;;8.40;;
46110;SDS011;31849;55.992;37.252;2024-03-23T11:40:33;13.77;;;9.05;;
46110;SDS011;31849;55.992;37.252;2024-03-23T11:45:39;12.15;;;8.38;;
46110;SDS011;31849;55.992;37.252;2024-03-23T11:50:44;11.05;;;8.30;;
46110;SDS011;31849;55.992;37.252;2024-03-23T11:55:49;12.98;;;9.43;;
46110;SDS011;31849;55.992;37.252;2024-03-23T12:00:55;13.63;;;9.33;;
46110;SDS011;31849;55.992;37.252;2024-03-23T12:05:59;13.10;;;8.63;;
46110;SDS011;31849;55.992;37.252;2024-03-23T12:11:07;11.32;;;8.65;;
46110;SDS011;31849;55.992;37.252;2024-03-23T12:16:14;13.05;;;8.10;;
46110;SDS011;31849;55.992;37.252;2024-03-23T12:21:18;12.43;;;8.60;;
46110;SDS011;31849;55.992;37.252;2024-03-23T12:26:23;13.75;;;9.27;;
46110;SDS011;31849;55.992;37.252;2024-03-23T12:31:27;12.27;;;8.50;;
46110;SDS011;31849;55.992;37.252;2024-03-23T12:36:30;13.03;;;8.67;;
46110;SDS011;31849;55.992;37.252;2024-03-23T12:41:32;12.43;;;8.23;;
46110;SDS011;31849;55.992;37.252;2024-03-23T12:46:36;11.13;;;7.80;;
46110;SDS011;31849;55.992;37.252;2024-03-23T12:51:39;13.85;;;9.27;;
46110;SDS011;31849;55.992;37.252;2024-03-23T13:01:58;17.35;;;10.02;;
46110;SDS011;31849;55.992;37.252;2024-03-23T13:07:00;14.13;;;9.30;;
46110;SDS011;31849;55.992;37.252;2024-03-23T13:12:03;13.45;;;9.25;;
46110;SDS011;31849;55.992;37.252;2024-03-23T13:17:08;16.00;;;10.55;;
46110;SDS011;31849;55.992;37.252;2024-03-23T13:22:10;13.40;;;9.93;;
46110;SDS011;31849;55.992;37.252;2024-03-23T13:27:13;14.82;;;9.68;;
46110;SDS011;31849;55.992;37.252;2024-03-23T13:32:17;14.73;;;10.27;;
46110;SDS011;31849;55.992;37.252;2024-03-23T13:37:19;15.70;;;10.68;;
46110;SDS011;31849;55.992;37.252;2024-03-23T13:42:40;15.18;;;10.57;;
46110;SDS011;31849;55.992;37.252;2024-03-23T13:47:44;14.10;;;10.38;;
46110;SDS011;31849;55.992;37.252;2024-03-23T13:52:47;14.82;;;10.02;;
46110;SDS011;31849;55.992;37.252;2024-03-23T13:57:51;15.00;;;9.93;;
46110;SDS011;31849;55.992;37.252;2024-03-23T14:02:55;14.38;;;9.82;;
46110;SDS011;31849;55.992;37.252;2024-03-23T14:07:58;16.97;;;10.07;;
46110;SDS011;31849;55.992;37.252;2024-03-23T14:13:00;13.80;;;10.02;;
46110;SDS011;31849;55.992;37.252;2024-03-23T14:18:05;13.82;;;10.00;;
46110;SDS011;31849;55.992;37.252;2024-03-23T14:23:08;13.30;;;9.02;;
46110;SDS011;31849;55.992;37.252;2024-03-23T14:28:10;13.55;;;8.88;;
46110;SDS011;31849;55.992;37.252;2024-03-23T14:38:19;12.65;;;8.65;;
46110;SDS011;31849;55.992;37.252;2024-03-23T14:43:22;9.70;;;7.63;;
46110;SDS011;31849;55.992;37.252;2024-03-23T14:48:26;11.57;;;8.25;;
46110;SDS011;31849;55.992;37.252;2024-03-23T14:53:29;12.73;;;8.38;;
46110;SDS011;31849;55.992;37.252;2024-03-23T14:58:31;12.30;;;8.52;;
46110;SDS011;31849;55.992;37.252;2024-03-23T15:03:37;12.25;;;8.45;;
46110;SDS011;31849;55.992;37.252;2024-03-23T15:08:41;11.98;;;8.07;;
46110;SDS011;31849;55.992;37.252;2024-03-23T15:13:44;10.15;;;7.38;;
46110;SDS011;31849;55.992;37.252;2024-03-23T15:18:49;10.40;;;6.80;;
46110;SDS011;31849;55.992;37.252;2024-03-23T15:23:51;9.18;;;6.82;;
46110;SDS011;31849;55.992;37.252;2024-03-23T15:28:54;9.95;;;6.78;;
46110;SDS011;31849;55.992;37.252;2024-03-23T15:34:12;9.48;;;6.97;;
46110;SDS011;31849;55.992;37.252;2024-03-23T15:39:16;11.00;;;7.83;;
46110;SDS011;31849;55.992;37.252;2024-03-23T15:44:19;11.43;;;8.13;;
46110;SDS011;31849;55.992;37.252;2024-03-23T15:49:23;11.98;;;8.10;;
46110;SDS011;31849;55.992;37.252;2024-03-23T15:54:25;11.43;;;7.67;;
46110;SDS011;31849;55.992;37.252;2024-03-23T15:59:28;12.65;;;8.60;;
46110;SDS011;31849;55.992;37.252;2024-03-23T16:04:32;10.10;;;7.45;;
46110;SDS011;31849;55.992;37.252;2024-03-23T16:09:34;11.83;;;8.10;;
46110;SDS011;31849;55.992;37.252;2024-03-23T16:14:38;10.70;;;7.85;;
46110;SDS011;31849;55.992;37.252;2024-03-23T16:19:42;10.55;;;7.97;;
46110;SDS011;31849;55.992;37.252;2024-03-23T16:24:45;9.95;;;7.00;;
46110;SDS011;31849;55.992;37.252;2024-03-23T16:29:47;11.75;;;7.75;;
46110;SDS011;31849;55.992;37.252;2024-03-23T16:34:51;11.70;;;7.20;;
46110;SDS011;31849;55.992;37.252;2024-03-23T16:39:54;12.60;;;7.50;;
46110;SDS011;31849;55.992;37.252;2024-03-23T16:44:57;9.90;;;6.90;;
46110;SDS011;31849;55.992;37.252;2024-03-23T16:50:00;9.65;;;6.53;;
46110;SDS011;31849;55.992;37.252;2024-03-23T16:55:04;12.05;;;7.15;;
46110;SDS011;31849;55.992;37.252;2024-03-23T17:00:08;9.43;;;7.03;;
46110;SDS011;31849;55.992;37.252;2024-03-23T17:05:14;9.63;;;6.47;;
46110;SDS011;31849;55.992;37.252;2024-03-23T17:10:16;9.23;;;7.23;;
46110;SDS011;31849;55.992;37.252;2024-03-23T17:15:19;9.73;;;6.63;;
46110;SDS011;31849;55.992;37.252;2024-03-23T17:20:23;10.88;;;6.78;;
46110;SDS011;31849;55.992;37.252;2024-03-23T17:25:26;12.07;;;6.83;;
46110;SDS011;31849;55.992;37.252;2024-03-23T17:30:28;13.05;;;7.63;;
46110;SDS011;31849;55.992;37.252;2024-03-23T17:35:33;10.10;;;7.15;;
46110;SDS011;31849;55.992;37.252;2024-03-23T17:40:35;12.33;;;6.57;;
46110;SDS011;31849;55.992;37.252;2024-03-23T17:45:38;9.95;;;6.22;;
46110;SDS011;31849;55.992;37.252;2024-03-23T17:50:42;14.45;;;6.53;;
46110;SDS011;31849;55.992;37.252;2024-03-23T17:55:45;16.27;;;6.43;;
46110;SDS011;31849;55.992;37.252;2024-03-23T18:00:48;13.38;;;6.22;;
46110;SDS011;31849;55.992;37.252;2024-03-23T18:05:52;10.63;;;6.70;;
46110;SDS011;31849;55.992;37.252;2024-03-23T18:10:54;10.03;;;6.27;;
46110;SDS011;31849;55.992;37.252;2024-03-23T18:15:57;10.63;;;6.75;;
46110;SDS011;31849;55.992;37.252;2024-03-23T18:21:02;10.65;;;6.60;;
46110;SDS011;31849;55.992;37.252;2024-03-23T18:26:05;12.88;;;6.47;;
46110;SDS011;31849;55.992;37.252;2024-03-23T18:31:09;11.73;;;6.60;;
46110;SDS011;31849;55.992;37.252;2024-03-23T18:36:13;13.95;;;6.93;;
46110;SDS011;31849;55.992;37.252;2024-03-23T18:41:16;12.43;;;7.45;;
46110;SDS011;31849;55.992;37.252;2024-03-23T18:46:19;13.93;;;7.20;;
46110;SDS011;31849;55.992;37.252;2024-03-23T18:51:23;12.73;;;6.43;;
46110;SDS011;31849;55.992;37.252;2024-03-23T18:56:26;13.13;;;6.90;;
46110;SDS011;31849;55.992;37.252;2024-03-23T19:01:29;13.77;;;7.03;;
46110;SDS011;31849;55.992;37.252;2024-03-23T19:06:33;12.80;;;6.22;;
46110;SDS011;31849;55.992;37.252;2024-03-23T19:11:35;9.67;;;5.77;;
46110;SDS011;31849;55.992;37.252;2024-03-23T19:16:38;13.00;;;5.68;;
46110;SDS011;31849;55.992;37.252;2024-03-23T19:21:42;9.68;;;5.85;;
46110;SDS011;31849;55.992;37.252;2024-03-23T19:26:45;9.70;;;5.32;;
46110;SDS011;31849;55.992;37.252;2024-03-23T19:31:47;10.48;;;5.20;;
46110;SDS011;31849;55.992;37.252;2024-03-23T19:36:51;13.35;;;5.38;;
46110;SDS011;31849;55.992;37.252;2024-03-23T19:41:54;15.57;;;5.63;;
46110;SDS011;31849;55.992;37.252;2024-03-23T19:46:56;13.10;;;5.75;;
46110;SDS011;31849;55.992;37.252;2024-03-23T19:52:00;13.50;;;5.05;;
46110;SDS011;31849;55.992;37.252;2024-03-23T19:57:04;14.70;;;4.78;;
46110;SDS011;31849;55.992;37.252;2024-03-23T20:02:06;14.05;;;4.90;;
46110;SDS011;31849;55.992;37.252;2024-03-23T20:07:11;11.48;;;4.53;;
46110;SDS011;31849;55.992;37.252;2024-03-23T20:12:13;10.17;;;4.10;;
46110;SDS011;31849;55.992;37.252;2024-03-23T20:17:16;9.48;;;4.45;;
46110;SDS011;31849;55.992;37.252;2024-03-23T20:22:20;10.90;;;4.97;;
46110;SDS011;31849;55.992;37.252;2024-03-23T20:27:23;12.25;;;3.97;;
46110;SDS011;31849;55.992;37.252;2024-03-23T20:32:27;10.00;;;3.80;;
46110;SDS011;31849;55.992;37.252;2024-03-23T20:37:31;9.00;;;3.55;;
46110;SDS011;31849;55.992;37.252;2024-03-23T20:42:33;8.57;;;3.43;;
46110;SDS011;31849;55.992;37.252;2024-03-23T20:47:36;13.15;;;3.97;;
46110;SDS011;31849;55.992;37.252;2024-03-23T20:52:40;9.98;;;3.40;;
46110;SDS011;31849;55.992;37.252;2024-03-23T20:57:43;8.13;;;3.47;;
46110;SDS011;31849;55.992;37.252;2024-03-23T21:02:46;7.82;;;3.85;;
46110;SDS011;31849;55.992;37.252;2024-03-23T21:07:50;9.20;;;3.72;;
46110;SDS011;31849;55.992;37.252;2024-03-23T21:12:52;7.33;;;3.60;;
46110;SDS011;31849;55.992;37.252;2024-03-23T21:17:55;7.13;;;3.45;;
46110;SDS011;31849;55.992;37.252;2024-03-23T21:22:59;6.80;;;3.60;;
46110;SDS011;31849;55.992;37.252;2024-03-23T21:28:02;8.47;;;4.03;;
46110;SDS011;31849;55.992;37.252;2024-03-23T21:33:05;10.35;;;4.20;;
46110;SDS011;31849;55.992;37.252;2024-03-23T21:38:09;8.43;;;4.53;;
46110;SDS011;31849;55.992;37.252;2024-03-23T21:43:12;12.40;;;5.38;;
46110;SDS011;31849;55.992;37.252;2024-03-23T21:48:15;10.20;;;4.60;;
46110;SDS011;31849;55.992;37.252;2024-03-23T21:53:19;11.43;;;5.10;;
46110;SDS011;31849;55.992;37.252;2024-03-23T21:58:21;10.03;;;4.77;;
46110;SDS011;31849;55.992;37.252;2024-03-23T22:03:24;9.52;;;4.85;;
46110;SDS011;31849;55.992;37.252;2024-03-23T22:08:28;10.25;;;5.05;;
46110;SDS011;31849;55.992;37.252;2024-03-23T22:13:31;12.73;;;4.80;;
46110;SDS011;31849;55.992;37.252;2024-03-23T22:18:33;9.68;;;5.05;;
46110;SDS011;31849;55.992;37.252;2024-03-23T22:23:37;11.00;;;4.90;;
46110;SDS011;31849;55.992;37.252;2024-03-23T22:28:40;12.10;;;6.10;;
46110;SDS011;31849;55.992;37.252;2024-03-23T22:33:43;11.88;;;5.55;;
46110;SDS011;31849;55.992;37.252;2024-03-23T22:38:47;9.48;;;5.57;;
46110;SDS011;31849;55.992;37.252;2024-03-23T22:43:50;13.52;;;6.78;;
46110;SDS011;31849;55.992;37.252;2024-03-23T22:48:52;13.40;;;7.05;;
46110;SDS011;31849;55.992;37.252;2024-03-23T22:53:56;15.50;;;8.18;;
46110;SDS011;31849;55.992;37.252;2024-03-23T22:58:59;15.33;;;7.63;;
46110;SDS011;31849;55.992;37.252;2024-03-23T23:04:01;18.23;;;9.98;;
46110;SDS011;31849;55.992;37.252;2024-03-23T23:09:05;41.28;;;12.07;;
46110;SDS011;31849;55.992;37.252;2024-03-23T23:14:08;90.03;;;12.83;;
46110;SDS011;31849;55.992;37.252;2024-03-23T23:19:11;71.43;;;12.48;;
46110;SDS011;31849;55.992;37.252;2024-03-23T23:24:17;123.07;;;14.27;;
46110;SDS011;31849;55.992;37.252;2024-03-23T23:29:19;53.07;;;11.03;;
46110;SDS011;31849;55.992;37.252;2024-03-23T23:34:22;163.40;;;15.68;;
46110;SDS011;31849;55.992;37.252;2024-03-23T23:39:26;138.65;;;13.55;;
46110;SDS011;31849;55.992;37.252;2024-03-23T23:44:28;200.60;;;16.47;;
46110;SDS011;31849;55.992;37.252;2024-03-23T23:49:31;181.88;;;14.88;;
46110;SDS011;31849;55.992;37.252;2024-03-23T23:54:35;113.10;;;12.80;;
46110;SDS011;31849;55.992;37.252;2024-03-23T23:59:37;182.87;;;13.97;;
